Kempton, Indiana
Current Conditions -  °F | °C
As of 11:15 AM on Wednesday 28 Jan 2015 (Local Time) from KTYQ Reporting Station
Clear Clear  
Wind Chill: 20°   Ceiling: Unl
Heat Index: 29°   Visibility: 10mi
Dew Point: 16°   Wind: 9mph
Humidity: 60%   Direction: 150°SSE
Pressure: 30.31"   Gusts: NA
Location:  40.29°N, 86.23°W
Report Text: KTYQ 281615Z AUTO 15008KT 10SM CLR M02/M09 A3031 RMK AO2 T10191088
Loading
Personal Weather Stations






























Interactive Weather Map New forecast layout! Learn more

10-Day Weather Forecast

Advertisements
Track Severe Weather on mobile